createdAt,value
2022-08-06T00:00:02.194Z,1.37
2022-08-06T00:02:50.699Z,1.27
2022-08-06T00:05:52.225Z,1.20
2022-08-06T00:08:54.886Z,1.10
2022-08-06T00:12:01.655Z,1.03
2022-08-06T00:15:13.314Z,1.00
2022-08-06T00:18:15.580Z,1.07
2022-08-06T00:21:41.925Z,1.17
2022-08-06T00:24:38.613Z,1.20
2022-08-06T00:27:42.825Z,1.20
2022-08-06T00:30:53.111Z,1.20
2022-08-06T00:33:57.686Z,1.20
2022-08-06T00:36:59.435Z,1.10
2022-08-06T00:40:00.860Z,1.30
2022-08-06T00:43:06.241Z,1.23
2022-08-06T00:46:15.971Z,1.40
2022-08-06T00:49:48.289Z,1.43
2022-08-06T00:52:39.321Z,1.30
2022-08-06T00:55:59.899Z,1.30
2022-08-06T00:59:03.695Z,1.20
2022-08-06T01:02:10.151Z,1.30
2022-08-06T01:06:04.339Z,1.10
2022-08-06T01:08:41.957Z,1.23
2022-08-06T01:11:43.391Z,1.57
2022-08-06T01:14:44.993Z,1.20
2022-08-06T01:18:11.478Z,1.23
2022-08-06T01:22:29.448Z,1.20
2022-08-06T01:25:25.220Z,1.40
2022-08-06T01:28:53.065Z,1.30
2022-08-06T01:32:10.045Z,1.40
2022-08-06T01:35:46.682Z,1.40
2022-08-06T01:38:45.158Z,1.40
2022-08-06T01:42:00.926Z,1.50
2022-08-06T01:45:07.729Z,1.50
2022-08-06T01:48:17.339Z,1.53
2022-08-06T01:52:14.022Z,1.60
2022-08-06T01:54:45.900Z,1.33
2022-08-06T01:58:19.996Z,1.87
2022-08-06T02:01:23.216Z,1.70
2022-08-06T02:04:29.049Z,1.57
2022-08-06T02:08:39.398Z,1.80
2022-08-06T02:11:01.319Z,1.73
2022-08-06T02:14:28.188Z,1.80
2022-08-06T02:18:03.442Z,1.90
2022-08-06T02:21:18.416Z,1.70
2022-08-06T02:24:24.019Z,1.97
2022-08-06T02:27:43.613Z,2.13
2022-08-06T02:30:53.588Z,1.77
2022-08-06T02:34:03.271Z,1.93
2022-08-06T02:38:01.463Z,1.93
2022-08-06T02:40:50.939Z,1.90
2022-08-06T02:43:56.024Z,1.90
2022-08-06T02:47:13.393Z,2.00
2022-08-06T02:50:24.879Z,2.40
2022-08-06T02:53:44.939Z,2.47
2022-08-06T02:57:03.320Z,2.10
2022-08-06T03:00:08.347Z,1.90
2022-08-06T03:03:21.726Z,2.13
2022-08-06T03:06:38.557Z,1.87
2022-08-06T03:09:49.553Z,2.00
2022-08-06T03:12:55.667Z,2.30
2022-08-06T03:16:01.628Z,2.40
2022-08-06T03:19:57.669Z,2.27
2022-08-06T03:22:35.985Z,2.30
2022-08-06T03:25:48.288Z,2.20
2022-08-06T03:28:50.569Z,2.10
2022-08-06T03:31:58.320Z,2.20
2022-08-06T03:35:01.154Z,2.10
2022-08-06T03:38:03.477Z,2.30
2022-08-06T03:41:08.402Z,1.80
2022-08-06T03:44:11.710Z,2.00
2022-08-06T03:47:49.350Z,1.73
2022-08-06T03:50:58.002Z,2.23
2022-08-06T03:54:01.573Z,2.00
2022-08-06T03:57:16.741Z,2.00
2022-08-06T04:00:22.432Z,2.00
2022-08-06T04:03:33.379Z,2.10
2022-08-06T04:06:44.007Z,2.13
2022-08-06T04:10:00.861Z,2.20
2022-08-06T04:13:11.932Z,2.00
2022-08-06T04:16:33.252Z,2.20
2022-08-06T04:19:43.438Z,2.10
2022-08-06T04:22:59.318Z,2.00
2022-08-06T04:26:14.818Z,1.90
2022-08-06T04:29:19.696Z,1.90
2022-08-06T04:32:29.446Z,1.90
2022-08-06T04:36:06.064Z,2.20
2022-08-06T04:38:57.311Z,2.50
2022-08-06T04:42:00.828Z,1.70
2022-08-06T04:46:15.687Z,1.73
2022-08-06T04:48:34.412Z,2.10
2022-08-06T04:52:35.707Z,1.73
2022-08-06T04:55:04.259Z,1.53
2022-08-06T04:58:11.499Z,1.60
2022-08-06T05:01:13.683Z,1.80
2022-08-06T05:04:15.781Z,1.80
2022-08-06T05:07:22.893Z,1.70
2022-08-06T05:10:31.016Z,2.00
2022-08-06T05:13:39.384Z,1.70
2022-08-06T05:16:53.612Z,1.70
2022-08-06T05:20:00.021Z,1.60
2022-08-06T05:23:19.888Z,1.67
2022-08-06T05:26:24.537Z,1.80
2022-08-06T05:29:27.103Z,1.90
2022-08-06T05:32:53.766Z,1.90
2022-08-06T05:36:04.878Z,1.87
2022-08-06T05:39:08.356Z,1.73
2022-08-06T05:42:09.988Z,1.70
2022-08-06T05:45:19.452Z,1.67
2022-08-06T05:48:29.788Z,1.73
2022-08-06T05:51:45.590Z,1.80
2022-08-06T05:55:11.213Z,1.73
2022-08-06T05:58:28.881Z,1.70
2022-08-06T06:01:33.352Z,1.70
2022-08-06T06:04:39.047Z,1.87
2022-08-06T06:08:08.122Z,1.80
2022-08-06T06:11:12.609Z,2.00
2022-08-06T06:14:36.804Z,1.67
2022-08-06T06:18:02.310Z,1.57
2022-08-06T06:21:18.361Z,1.40
2022-08-06T06:24:33.753Z,1.60
2022-08-06T06:27:52.344Z,1.60
2022-08-06T06:31:58.395Z,1.70
2022-08-06T06:34:41.971Z,1.40
2022-08-06T06:38:18.741Z,1.70
2022-08-06T06:41:44.793Z,1.87
2022-08-06T06:45:04.252Z,1.37
2022-08-06T06:48:22.595Z,1.30
2022-08-06T06:51:56.783Z,1.50
2022-08-06T06:55:19.389Z,1.47
2022-08-06T06:58:35.738Z,1.50
2022-08-06T07:01:41.183Z,1.50
2022-08-06T07:04:59.255Z,1.27
2022-08-06T07:08:03.503Z,1.20
2022-08-06T07:11:08.028Z,1.30
2022-08-06T07:14:09.989Z,1.30
2022-08-06T07:17:46.393Z,2.00
2022-08-06T07:20:36.851Z,1.20
2022-08-06T07:24:08.477Z,1.30
2022-08-06T07:27:14.772Z,1.30
2022-08-06T07:30:19.068Z,1.30
2022-08-06T07:33:21.329Z,1.30
2022-08-06T07:36:27.220Z,1.40
2022-08-06T07:39:34.212Z,1.00
2022-08-06T07:42:38.569Z,1.00
2022-08-06T07:45:54.842Z,0.90
2022-08-06T07:49:02.154Z,0.90
2022-08-06T07:52:05.582Z,0.90
2022-08-06T07:55:11.491Z,1.00
2022-08-06T07:58:16.673Z,1.00
2022-08-06T08:01:20.098Z,0.80
2022-08-06T08:04:52.701Z,0.87
2022-08-06T08:07:57.282Z,0.90
2022-08-06T08:11:00.395Z,1.00
2022-08-06T08:14:06.162Z,0.80
2022-08-06T08:17:09.089Z,0.80
2022-08-06T08:20:16.185Z,1.00
2022-08-06T08:23:25.297Z,1.00
2022-08-06T08:27:02.883Z,0.80
2022-08-06T08:29:59.780Z,0.90
2022-08-06T08:33:01.395Z,0.90
2022-08-06T08:36:07.717Z,0.90
2022-08-06T08:39:13.518Z,0.90
2022-08-06T08:42:36.755Z,1.10
2022-08-06T08:45:43.252Z,1.10
2022-08-06T08:48:46.765Z,0.87
2022-08-06T08:51:50.914Z,0.90
2022-08-06T08:54:55.970Z,1.17
2022-08-06T08:58:40.303Z,1.07
2022-08-06T09:01:53.526Z,1.00
2022-08-06T09:04:43.427Z,1.10
2022-08-06T09:08:00.646Z,1.00
2022-08-06T09:11:07.183Z,0.87
2022-08-06T09:14:13.774Z,1.00
2022-08-06T09:18:11.026Z,0.93
2022-08-06T09:20:45.556Z,0.80
2022-08-06T09:23:49.438Z,1.10
2022-08-06T09:27:47.010Z,0.90
2022-08-06T09:30:37.973Z,0.80
2022-08-06T09:34:30.840Z,0.80
2022-08-06T09:37:28.220Z,1.00
2022-08-06T09:40:32.948Z,0.87
2022-08-06T09:44:02.073Z,0.80
2022-08-06T09:46:58.905Z,0.77
2022-08-06T09:50:01.257Z,0.90
2022-08-06T09:53:13.181Z,0.90
2022-08-06T09:56:16.889Z,1.00
2022-08-06T09:59:18.522Z,0.80
2022-08-06T10:02:24.138Z,0.90
2022-08-06T10:05:34.866Z,0.90
2022-08-06T10:09:06.628Z,1.00
2022-08-06T10:12:26.385Z,0.97
2022-08-06T10:15:58.149Z,0.90
2022-08-06T10:18:54.645Z,0.90
2022-08-06T10:22:10.652Z,0.60
2022-08-06T10:25:14.229Z,1.00
2022-08-06T10:28:28.235Z,0.93
2022-08-06T10:31:32.415Z,0.90
2022-08-06T10:34:36.340Z,1.10
2022-08-06T10:37:49.012Z,0.90
2022-08-06T10:40:57.098Z,0.80
2022-08-06T10:44:00.813Z,0.70
2022-08-06T10:47:08.490Z,0.90
2022-08-06T10:50:25.479Z,0.80
2022-08-06T10:54:02.201Z,0.93
2022-08-06T10:57:01.669Z,0.90
2022-08-06T11:00:07.466Z,1.10
2022-08-06T11:03:13.669Z,0.73
2022-08-06T11:06:42.629Z,0.70
2022-08-06T11:10:44.424Z,0.80
2022-08-06T11:14:03.552Z,1.00
2022-08-06T11:17:08.232Z,0.80
2022-08-06T11:20:34.881Z,1.00
2022-08-06T11:23:59.196Z,1.00
2022-08-06T11:27:02.087Z,0.77
2022-08-06T11:30:13.690Z,0.70
2022-08-06T11:33:22.126Z,1.00
2022-08-06T11:36:28.313Z,0.80
2022-08-06T11:39:34.676Z,0.80
2022-08-06T11:42:49.990Z,0.87
2022-08-06T11:46:32.106Z,0.70
2022-08-06T11:49:43.121Z,0.90
2022-08-06T11:52:45.944Z,0.90
2022-08-06T11:56:05.885Z,0.77
2022-08-06T11:59:15.327Z,1.00
2022-08-06T12:02:38.173Z,0.87
2022-08-06T12:05:56.797Z,0.70
2022-08-06T12:09:23.917Z,0.83
2022-08-06T12:12:47.491Z,0.80
2022-08-06T12:15:59.214Z,0.80
2022-08-06T12:19:14.418Z,0.80
2022-08-06T12:22:19.329Z,0.80
2022-08-06T12:25:21.009Z,0.90
2022-08-06T12:28:24.936Z,0.80
2022-08-06T12:31:36.385Z,0.70
2022-08-06T12:34:40.733Z,1.00
2022-08-06T12:37:59.690Z,0.80
2022-08-06T12:41:09.665Z,0.80
2022-08-06T12:44:15.077Z,0.90
2022-08-06T12:48:03.714Z,0.75
2022-08-06T12:51:11.089Z,0.90
2022-08-06T12:54:26.225Z,0.80
2022-08-06T12:57:57.613Z,0.77
2022-08-06T13:00:57.255Z,0.82
2022-08-06T13:04:04.932Z,0.70
2022-08-06T13:07:15.030Z,0.70
2022-08-06T13:10:33.987Z,0.73
2022-08-06T13:14:14.736Z,0.75
2022-08-06T13:17:18.906Z,0.77
2022-08-06T13:20:44.226Z,0.90
2022-08-06T13:23:50.094Z,0.80
2022-08-06T13:26:54.757Z,0.80
2022-08-06T13:30:34.788Z,0.90
2022-08-06T13:33:25.422Z,0.70
2022-08-06T13:36:28.467Z,0.70
2022-08-06T13:39:34.803Z,0.75
2022-08-06T13:42:51.356Z,0.70
2022-08-06T13:46:15.063Z,0.88
2022-08-06T13:49:19.064Z,0.80
2022-08-06T13:52:22.007Z,0.70
2022-08-06T13:55:25.135Z,0.80
2022-08-06T13:58:27.538Z,0.70
2022-08-06T14:01:44.493Z,0.73
2022-08-06T14:04:50.652Z,0.70
2022-08-06T14:07:52.396Z,0.80
2022-08-06T14:10:55.491Z,0.80
2022-08-06T14:13:58.914Z,0.90
2022-08-06T14:17:00.640Z,0.65
2022-08-06T14:20:16.685Z,0.52
2022-08-06T14:23:21.571Z,0.80
2022-08-06T14:26:27.467Z,0.98
2022-08-06T14:30:27.066Z,0.80
2022-08-06T14:32:50.679Z,0.90
2022-08-06T14:35:52.531Z,0.80
2022-08-06T14:38:54.361Z,0.70
2022-08-06T14:42:14.708Z,0.85
2022-08-06T14:45:21.781Z,0.60
2022-08-06T14:48:23.374Z,0.80
2022-08-06T14:51:37.665Z,0.70
2022-08-06T14:54:55.951Z,0.70
2022-08-06T14:58:09.458Z,0.70
2022-08-06T15:01:15.448Z,0.70
2022-08-06T15:04:22.110Z,0.70
2022-08-06T15:07:26.930Z,0.80
2022-08-06T15:10:42.692Z,0.70
2022-08-06T15:13:44.105Z,0.70
2022-08-06T15:17:01.007Z,0.50
2022-08-06T15:20:18.234Z,0.80
2022-08-06T15:23:30.908Z,0.80
2022-08-06T15:26:49.325Z,0.77
2022-08-06T15:29:51.492Z,0.90
2022-08-06T15:32:57.309Z,0.70
2022-08-06T15:35:59.417Z,0.70
2022-08-06T15:39:01.056Z,0.80
2022-08-06T15:42:11.147Z,0.60
2022-08-06T15:45:49.808Z,0.77
2022-08-06T15:48:36.123Z,0.80
2022-08-06T15:52:01.401Z,0.70
2022-08-06T15:55:15.728Z,0.80
2022-08-06T15:58:28.424Z,0.80
2022-08-06T16:01:34.691Z,0.70
2022-08-06T16:04:53.563Z,0.80
2022-08-06T16:07:56.531Z,0.77
2022-08-06T16:10:58.327Z,0.63
2022-08-06T16:13:59.838Z,0.70
2022-08-06T16:17:01.856Z,0.60
2022-08-06T16:20:05.661Z,0.73
2022-08-06T16:23:11.930Z,0.68
2022-08-06T16:26:40.537Z,0.70
2022-08-06T16:29:48.309Z,0.80
2022-08-06T16:32:50.518Z,0.70
2022-08-06T16:35:52.000Z,0.80
2022-08-06T16:38:53.406Z,0.80
2022-08-06T16:41:58.506Z,0.80
2022-08-06T16:45:02.895Z,0.70
2022-08-06T16:48:21.883Z,0.70
2022-08-06T16:52:41.751Z,0.90
2022-08-06T16:54:52.053Z,0.80
2022-08-06T16:57:57.702Z,0.70
2022-08-06T17:04:30.357Z,0.93
2022-08-06T17:07:41.782Z,1.08
2022-08-06T17:10:43.999Z,0.80
2022-08-06T17:13:45.692Z,0.90
2022-08-06T17:16:58.662Z,1.10
2022-08-06T17:20:04.086Z,0.82
2022-08-06T17:23:05.944Z,0.80
2022-08-06T17:26:08.108Z,0.70
2022-08-06T17:29:09.680Z,0.70
2022-08-06T17:32:27.715Z,0.70
2022-08-06T17:36:31.105Z,0.90
2022-08-06T17:38:55.271Z,0.90
2022-08-06T17:41:57.066Z,0.77
2022-08-06T17:44:58.590Z,0.80
2022-08-06T17:48:01.503Z,0.70
2022-08-06T17:51:10.044Z,0.95
2022-08-06T17:54:44.478Z,1.00
2022-08-06T17:58:03.642Z,0.80
2022-08-06T18:01:09.949Z,0.90
2022-08-06T18:04:21.921Z,1.02
2022-08-06T18:08:10.804Z,1.42
2022-08-06T18:10:51.761Z,0.90
2022-08-06T18:13:54.897Z,0.80
2022-08-06T18:16:56.515Z,0.82
2022-08-06T18:19:58.036Z,0.90
2022-08-06T18:23:03.371Z,0.70
2022-08-06T18:26:06.835Z,0.90
2022-08-06T18:29:09.026Z,0.80
2022-08-06T18:32:10.433Z,0.80
2022-08-06T18:35:17.568Z,0.80
2022-08-06T18:38:19.195Z,1.10
2022-08-06T18:41:23.182Z,0.80
2022-08-06T18:44:27.169Z,1.10
2022-08-06T18:47:29.003Z,0.70
2022-08-06T18:50:34.954Z,1.10
2022-08-06T18:54:01.737Z,0.80
2022-08-06T18:57:00.292Z,0.80
2022-08-06T19:00:06.392Z,0.87
2022-08-06T19:03:19.585Z,1.00
2022-08-06T19:06:39.285Z,0.70
2022-08-06T19:09:52.803Z,0.70
2022-08-06T19:12:54.928Z,1.00
2022-08-06T19:15:56.409Z,1.00
2022-08-06T19:18:58.380Z,0.90
2022-08-06T19:22:00.272Z,0.80
2022-08-06T19:25:09.239Z,1.00
2022-08-06T19:28:35.329Z,1.00
2022-08-06T19:31:42.141Z,1.00
2022-08-06T19:34:45.134Z,0.97
2022-08-06T19:37:59.498Z,0.90
2022-08-06T19:41:02.999Z,1.10
2022-08-06T19:44:27.611Z,1.30
2022-08-06T19:47:26.271Z,1.00
2022-08-06T19:50:29.730Z,1.10
2022-08-06T19:53:33.053Z,0.90
2022-08-06T19:56:34.862Z,0.80
2022-08-06T20:00:55.398Z,1.00
2022-08-06T20:03:00.516Z,0.80
2022-08-06T20:06:20.004Z,0.70
2022-08-06T20:09:42.197Z,0.90
2022-08-06T20:12:51.047Z,0.70
2022-08-06T20:15:52.811Z,0.70
2022-08-06T20:18:54.362Z,0.70
2022-08-06T20:21:56.795Z,0.83
2022-08-06T20:24:58.486Z,0.60
2022-08-06T20:29:08.856Z,0.60
2022-08-06T20:31:22.568Z,0.73
2022-08-06T20:34:27.715Z,0.80
2022-08-06T20:37:44.959Z,0.80
2022-08-06T20:41:58.921Z,0.60
2022-08-06T20:44:17.788Z,0.87
2022-08-06T20:47:46.161Z,0.70
2022-08-06T20:50:46.977Z,0.80
2022-08-06T20:53:55.862Z,0.70
2022-08-06T20:56:58.088Z,0.70
2022-08-06T21:00:17.525Z,0.60
2022-08-06T21:05:11.116Z,0.90
2022-08-06T21:06:42.444Z,0.73
2022-08-06T21:09:46.299Z,0.70
2022-08-06T21:12:59.048Z,0.80
2022-08-06T21:16:09.906Z,0.70
2022-08-06T21:19:16.402Z,0.70
2022-08-06T21:22:20.152Z,0.67
2022-08-06T21:25:27.690Z,0.70
2022-08-06T21:28:41.058Z,0.70
2022-08-06T21:31:46.765Z,0.70
2022-08-06T21:34:48.716Z,0.80
2022-08-06T21:38:00.447Z,0.90
2022-08-06T21:41:29.895Z,0.70
2022-08-06T21:44:47.536Z,0.70
2022-08-06T21:47:52.242Z,0.70
2022-08-06T21:50:53.681Z,0.70
2022-08-06T21:54:01.680Z,0.70
2022-08-06T21:57:12.207Z,0.60
2022-08-06T22:00:34.987Z,0.70
2022-08-06T22:04:38.131Z,0.83
2022-08-06T22:06:59.174Z,0.60
2022-08-06T22:10:00.610Z,0.70
2022-08-06T22:13:12.920Z,0.77
2022-08-06T22:16:17.989Z,0.77
2022-08-06T22:19:39.417Z,0.70
2022-08-06T22:22:41.146Z,0.63
2022-08-06T22:25:43.261Z,0.70
2022-08-06T22:28:46.398Z,0.83
2022-08-06T22:31:57.311Z,0.60
2022-08-06T22:35:01.456Z,0.70
2022-08-06T22:38:16.081Z,0.73
2022-08-06T22:41:21.372Z,0.87
2022-08-06T22:45:47.375Z,0.70
2022-08-06T22:48:07.880Z,0.80
2022-08-06T22:51:12.055Z,0.60
2022-08-06T22:54:25.466Z,0.80
2022-08-06T22:57:37.141Z,0.80
2022-08-06T23:00:39.669Z,0.90
2022-08-06T23:03:41.376Z,0.90
2022-08-06T23:06:43.626Z,0.70
2022-08-06T23:09:51.071Z,0.90
2022-08-06T23:12:54.466Z,0.63
2022-08-06T23:15:58.593Z,0.70
2022-08-06T23:19:01.304Z,0.60
2022-08-06T23:22:04.821Z,0.60
2022-08-06T23:25:59.666Z,0.63
2022-08-06T23:28:29.433Z,0.70
2022-08-06T23:31:34.052Z,0.60
2022-08-06T23:34:38.918Z,0.90
2022-08-06T23:38:02.695Z,0.80
2022-08-06T23:41:05.234Z,0.60
2022-08-06T23:44:20.851Z,0.80
2022-08-06T23:47:54.417Z,0.70
2022-08-06T23:50:53.393Z,0.50
2022-08-06T23:54:06.728Z,0.67
2022-08-06T23:57:17.615Z,0.63
